createdAt,value
2023-04-15T00:02:01.254Z,97876.38
2023-04-15T00:04:31.703Z,97881.41
2023-04-15T00:06:59.151Z,97886.59
2023-04-15T00:09:26.408Z,97878.56
2023-04-15T00:11:53.616Z,97874.06
2023-04-15T00:14:21.047Z,97881.34
2023-04-15T00:16:55.158Z,97877.31
2023-04-15T00:19:22.948Z,97881.19
2023-04-15T00:21:50.091Z,97876.88
2023-04-15T00:24:17.237Z,97878.19
2023-04-15T00:26:44.480Z,97879.25
2023-04-15T00:29:11.633Z,97876.22
2023-04-15T00:31:38.772Z,97875.00
2023-04-15T00:34:11.784Z,97880.34
2023-04-15T00:36:39.409Z,97874.56
2023-04-15T00:39:07.944Z,97867.22
2023-04-15T00:41:35.182Z,97864.03
2023-04-15T00:44:02.929Z,97863.78
2023-04-15T00:46:33.719Z,97867.03
2023-04-15T00:49:03.322Z,97859.28
2023-04-15T00:51:31.549Z,97861.56
2023-04-15T00:54:08.478Z,97867.66
2023-04-15T00:56:38.597Z,97870.41
2023-04-15T00:59:07.113Z,97878.91
2023-04-15T01:01:38.626Z,97864.97
2023-04-15T01:04:06.981Z,97866.31
2023-04-15T01:06:34.432Z,97880.09
2023-04-15T01:09:02.371Z,97877.59
2023-04-15T01:11:34.470Z,97878.53
2023-04-15T01:14:02.806Z,97880.72
2023-04-15T01:16:30.267Z,97873.03
2023-04-15T01:18:58.985Z,97874.56
2023-04-15T01:21:26.852Z,97881.66
2023-04-15T01:23:59.476Z,97879.13
2023-04-15T01:26:27.373Z,97876.53
2023-04-15T01:28:54.775Z,97878.91
2023-04-15T01:31:22.227Z,97878.53
2023-04-15T01:33:49.365Z,97871.19
2023-04-15T01:36:36.733Z,97866.22
2023-04-15T01:39:04.415Z,97870.28
2023-04-15T01:41:34.056Z,97871.22
2023-04-15T01:44:07.126Z,97878.66
2023-04-15T01:46:37.195Z,97882.50
2023-04-15T01:49:06.240Z,97880.44
2023-04-15T01:51:34.752Z,97879.25
2023-04-15T01:54:03.267Z,97874.91
2023-04-15T01:56:32.089Z,97868.69
2023-04-15T01:59:00.753Z,97875.28
2023-04-15T02:01:29.493Z,97872.31
2023-04-15T02:04:01.174Z,97868.41
2023-04-15T02:06:29.671Z,97869.91
2023-04-15T02:08:59.234Z,97859.09
2023-04-15T02:11:27.803Z,97861.91
2023-04-15T02:13:56.482Z,97869.38
2023-04-15T02:16:27.173Z,97878.16
2023-04-15T02:18:55.772Z,97866.34
2023-04-15T02:21:24.129Z,97868.88
2023-04-15T02:23:57.937Z,97876.22
2023-04-15T02:26:27.551Z,97871.41
2023-04-15T02:28:56.414Z,97870.25
2023-04-15T02:31:26.021Z,97872.03
2023-04-15T02:33:54.480Z,97866.00
2023-04-15T02:36:23.944Z,97862.00
2023-04-15T02:38:52.896Z,97864.31
2023-04-15T02:41:25.814Z,97868.38
2023-04-15T02:43:55.035Z,97867.72
2023-04-15T02:46:24.300Z,97869.78
2023-04-15T02:48:53.892Z,97863.66
2023-04-15T02:51:23.672Z,97865.25
2023-04-15T02:53:52.061Z,97865.34
2023-04-15T02:56:20.746Z,97862.31
2023-04-15T02:58:50.692Z,97858.38
2023-04-15T03:01:20.566Z,97855.28
2023-04-15T03:03:49.436Z,97861.44
2023-04-15T03:06:18.348Z,97862.69
2023-04-15T03:08:48.104Z,97866.19
2023-04-15T03:11:17.131Z,97870.63
2023-04-15T03:13:45.956Z,97868.03
2023-04-15T03:16:27.236Z,97873.97
2023-04-15T03:18:55.688Z,97862.03
2023-04-15T03:21:26.718Z,97867.13
2023-04-15T03:23:58.300Z,97854.06
2023-04-15T03:26:32.131Z,97864.66
2023-04-15T03:29:04.259Z,97861.31
2023-04-15T03:31:33.004Z,97868.03
2023-04-15T03:34:26.822Z,97865.97
2023-04-15T03:36:56.332Z,97860.69
2023-04-15T03:39:24.787Z,97864.94
2023-04-15T03:41:53.136Z,97868.50
2023-04-15T03:44:24.577Z,97871.44
2023-04-15T03:46:53.961Z,97869.88
2023-04-15T03:49:23.261Z,97868.31
2023-04-15T03:51:51.644Z,97868.81
2023-04-15T03:54:20.123Z,97866.34
2023-04-15T03:56:48.490Z,97864.22
2023-04-15T03:59:16.918Z,97870.59
2023-04-15T04:01:45.822Z,97867.69
2023-04-15T04:04:14.451Z,97871.59
2023-04-15T04:06:43.140Z,97881.06
2023-04-15T04:09:11.603Z,97876.81
2023-04-15T04:11:39.996Z,97878.09
2023-04-15T04:14:08.360Z,97873.69
2023-04-15T04:16:36.817Z,97879.31
2023-04-15T04:19:05.185Z,97882.75
2023-04-15T04:21:34.257Z,97892.03
2023-04-15T04:24:03.343Z,97890.19
2023-04-15T04:26:31.689Z,97889.56
2023-04-15T04:29:00.570Z,97886.09
2023-04-15T04:31:29.493Z,97888.13
2023-04-15T04:34:35.230Z,97892.16
2023-04-15T04:37:10.046Z,97893.63
2023-04-15T04:39:38.623Z,97891.50
2023-04-15T04:42:06.953Z,97899.66
2023-04-15T04:44:35.398Z,97896.06
2023-04-15T04:47:03.748Z,97895.44
2023-04-15T04:49:32.154Z,97904.00
2023-04-15T04:52:00.759Z,97900.09
2023-04-15T04:54:30.724Z,97900.03
2023-04-15T04:56:59.308Z,97902.56
2023-04-15T04:59:28.097Z,97910.47
2023-04-15T05:01:56.501Z,97916.66
2023-04-15T05:04:24.978Z,97906.22
2023-04-15T05:06:53.380Z,97913.34
2023-04-15T05:09:21.857Z,97898.28
2023-04-15T05:11:50.406Z,97902.16
2023-04-15T05:14:18.788Z,97901.59
2023-04-15T05:16:47.345Z,97910.44
2023-04-15T05:19:15.894Z,97904.22
2023-04-15T05:21:44.390Z,97903.28
2023-04-15T05:24:13.440Z,97907.00
2023-04-15T05:26:42.917Z,97908.59
2023-04-15T05:29:11.366Z,97910.88
2023-04-15T05:31:39.855Z,97905.63
2023-04-15T05:34:33.251Z,97920.34
2023-04-15T05:37:02.337Z,97918.09
2023-04-15T05:39:37.483Z,97908.25
2023-04-15T05:42:06.290Z,97913.81
2023-04-15T05:44:34.708Z,97913.72
2023-04-15T05:47:03.978Z,97915.53
2023-04-15T05:49:32.618Z,97909.03
2023-04-15T05:52:01.284Z,97911.81
2023-04-15T05:54:29.902Z,97920.13
2023-04-15T05:56:58.979Z,97920.97
2023-04-15T05:59:28.431Z,97916.19
2023-04-15T06:01:57.446Z,97922.00
2023-04-15T06:04:26.083Z,97931.75
2023-04-15T06:06:54.655Z,97926.38
2023-04-15T06:09:23.037Z,97922.63
2023-04-15T06:11:53.704Z,97927.50
2023-04-15T06:14:22.361Z,97924.78
2023-04-15T06:16:51.338Z,97927.56
2023-04-15T06:19:20.317Z,97928.69
2023-04-15T06:21:48.890Z,97932.25
2023-04-15T06:24:17.933Z,97938.13
2023-04-15T06:26:46.523Z,97942.19
2023-04-15T06:29:14.897Z,97939.38
2023-04-15T06:31:43.377Z,97931.22
2023-04-15T06:34:17.881Z,97931.97
2023-04-15T06:36:46.906Z,97936.34
2023-04-15T06:39:15.417Z,97939.63
2023-04-15T06:41:43.987Z,97940.91
2023-04-15T06:44:14.134Z,97942.41
2023-04-15T06:46:42.990Z,97943.19
2023-04-15T06:49:12.225Z,97952.44
2023-04-15T06:51:42.811Z,97950.97
2023-04-15T06:54:11.485Z,97947.06
2023-04-15T06:56:39.988Z,97957.44
2023-04-15T06:59:08.785Z,97952.53
2023-04-15T07:01:37.685Z,97950.47
2023-04-15T07:04:06.340Z,97941.41
2023-04-15T07:06:35.640Z,97942.03
2023-04-15T07:09:05.558Z,97944.22
2023-04-15T07:11:34.654Z,97942.44
2023-04-15T07:14:03.544Z,97936.75
2023-04-15T07:16:32.553Z,97936.34
2023-04-15T07:19:01.370Z,97930.31
2023-04-15T07:21:30.682Z,97941.34
2023-04-15T07:23:59.550Z,97937.81
2023-04-15T07:26:28.651Z,97931.66
2023-04-15T07:28:57.265Z,97932.16
2023-04-15T07:31:25.734Z,97930.00
2023-04-15T07:33:54.264Z,97930.22
2023-04-15T07:36:23.299Z,97929.53
2023-04-15T07:38:55.383Z,97932.00
2023-04-15T07:41:24.147Z,97931.34
2023-04-15T07:43:52.597Z,97929.97
2023-04-15T07:46:21.643Z,97929.94
2023-04-15T07:48:50.918Z,97937.34
2023-04-15T07:51:21.283Z,97939.81
2023-04-15T07:53:50.601Z,97932.66
2023-04-15T07:56:19.095Z,97932.09
2023-04-15T07:58:51.622Z,97944.81
2023-04-15T08:01:21.637Z,97930.47
2023-04-15T08:03:51.210Z,97946.28
2023-04-15T08:06:19.668Z,97936.44
2023-04-15T08:08:48.290Z,97937.25
2023-04-15T08:11:17.181Z,97933.88
2023-04-15T08:13:46.887Z,97927.94
2023-04-15T08:16:24.564Z,97928.41
2023-04-15T08:18:56.198Z,97917.78
2023-04-15T08:21:25.304Z,97922.19
2023-04-15T08:23:57.863Z,97926.03
2023-04-15T08:26:27.148Z,97926.69
2023-04-15T08:28:56.585Z,97919.56
2023-04-15T08:31:29.790Z,97917.81
2023-04-15T08:33:59.300Z,97926.31
2023-04-15T08:36:27.684Z,97922.84
2023-04-15T08:38:57.244Z,97916.09
2023-04-15T08:41:27.446Z,97915.66
2023-04-15T08:44:05.399Z,97915.53
2023-04-15T08:46:35.018Z,97911.38
2023-04-15T08:49:14.463Z,97913.44
2023-04-15T08:51:43.480Z,97911.41
2023-04-15T08:54:12.526Z,97922.03
2023-04-15T08:56:41.041Z,97907.41
2023-04-15T08:59:11.162Z,97915.94
2023-04-15T09:01:41.211Z,97904.59
2023-04-15T09:04:12.530Z,97907.50
2023-04-15T09:06:41.661Z,97901.53
2023-04-15T09:09:10.198Z,97903.25
2023-04-15T09:11:39.039Z,97898.50
2023-04-15T09:14:07.667Z,97898.38
2023-04-15T09:17:02.569Z,97895.31
2023-04-15T09:19:33.524Z,97901.34
2023-04-15T09:22:07.804Z,97895.69
2023-04-15T09:24:40.918Z,97904.09
2023-04-15T09:27:09.647Z,97903.03
2023-04-15T09:29:38.607Z,97909.16
2023-04-15T09:32:15.541Z,97905.94
2023-04-15T09:34:45.245Z,97903.50
2023-04-15T09:37:41.903Z,97911.69
2023-04-15T09:40:16.409Z,97907.03
2023-04-15T09:43:01.351Z,97906.22
2023-04-15T09:45:30.419Z,97906.03
2023-04-15T09:48:27.133Z,97903.63
2023-04-15T09:51:00.511Z,97899.56
2023-04-15T09:53:31.258Z,97901.78
2023-04-15T09:56:02.632Z,97904.19
2023-04-15T09:58:35.122Z,97902.72
2023-04-15T10:04:04.674Z,97894.75
2023-04-15T10:06:35.509Z,97909.50
2023-04-15T10:09:04.378Z,97908.28
2023-04-15T10:11:35.879Z,97891.94
2023-04-15T10:14:06.055Z,97899.09
2023-04-15T10:16:42.595Z,97904.56
2023-04-15T10:19:12.234Z,97906.88
2023-04-15T10:21:41.644Z,97902.72
2023-04-15T10:24:10.911Z,97910.09
2023-04-15T10:26:39.749Z,97913.41
2023-04-15T10:29:09.844Z,97907.97
2023-04-15T10:31:41.555Z,97906.59
2023-04-15T10:34:12.961Z,97908.19
2023-04-15T10:36:42.368Z,97915.63
2023-04-15T10:39:33.973Z,97918.88
2023-04-15T10:42:18.177Z,97912.09
2023-04-15T10:44:51.954Z,97924.84
2023-04-15T10:47:22.310Z,97920.72
2023-04-15T10:49:59.228Z,97920.81
2023-04-15T10:52:29.716Z,97924.91
2023-04-15T10:55:31.720Z,97931.91
2023-04-15T10:58:03.072Z,97928.59
2023-04-15T11:00:35.184Z,97928.66
2023-04-15T11:03:10.242Z,97937.09
2023-04-15T11:05:42.680Z,97926.75
2023-04-15T11:08:13.245Z,97926.03
2023-04-15T11:10:42.030Z,97925.47
2023-04-15T11:13:10.678Z,97929.13
2023-04-15T11:15:45.289Z,97924.44
2023-04-15T11:18:26.748Z,97915.88
2023-04-15T11:21:01.234Z,97922.69
2023-04-15T11:23:47.031Z,97919.25
2023-04-15T11:26:27.341Z,97927.44
2023-04-15T11:28:59.788Z,97919.81
2023-04-15T11:31:29.151Z,97923.75
2023-04-15T11:34:02.480Z,97923.47
2023-04-15T11:36:34.509Z,97937.53
2023-04-15T11:39:07.700Z,97929.97
2023-04-15T11:41:36.799Z,97912.72
2023-04-15T11:44:20.325Z,97918.44
2023-04-15T11:46:49.436Z,97926.38
2023-04-15T11:49:32.310Z,97924.06
2023-04-15T11:52:00.800Z,97930.34
2023-04-15T11:54:28.061Z,97927.66
2023-04-15T11:56:56.727Z,97929.03
2023-04-15T11:59:26.358Z,97938.09
2023-04-15T12:01:56.449Z,97945.19
2023-04-15T12:04:25.950Z,97960.03
2023-04-15T12:06:53.978Z,97978.53
2023-04-15T12:09:21.950Z,97969.97
2023-04-15T12:12:09.049Z,97969.63
2023-04-15T12:15:52.996Z,97964.75
2023-04-15T12:18:41.462Z,97973.25
2023-04-15T12:21:12.831Z,97973.06
2023-04-15T12:23:58.124Z,97966.59
2023-04-15T12:26:37.689Z,97970.94
2023-04-15T12:29:09.772Z,97976.63
2023-04-15T12:31:55.962Z,97979.03
2023-04-15T12:34:37.690Z,97985.41
2023-04-15T12:37:13.611Z,97989.09
2023-04-15T12:39:46.686Z,98009.53
2023-04-15T12:42:20.520Z,98026.22
2023-04-15T12:44:49.377Z,98048.31
2023-04-15T12:47:17.985Z,98070.69
2023-04-15T12:49:53.595Z,98090.75
2023-04-15T12:52:21.190Z,98088.09
2023-04-15T12:54:48.609Z,98095.06
2023-04-15T12:57:15.754Z,98096.59
2023-04-15T12:59:42.844Z,98098.50
2023-04-15T13:02:10.162Z,98090.66
2023-04-15T13:04:37.373Z,98104.28
2023-04-15T13:07:04.856Z,98092.63
2023-04-15T13:09:32.356Z,98091.41
2023-04-15T13:11:59.700Z,98081.88
2023-04-15T13:14:27.153Z,98090.91
2023-04-15T13:16:54.331Z,98087.88
2023-04-15T13:19:21.619Z,98100.06
2023-04-15T13:21:48.857Z,98092.13
2023-04-15T13:24:17.475Z,98088.19
2023-04-15T13:26:44.794Z,98084.75
2023-04-15T13:29:12.367Z,98091.94
2023-04-15T13:31:39.547Z,98099.41
2023-04-15T13:34:12.214Z,98091.38
2023-04-15T13:36:39.808Z,98096.66
2023-04-15T13:39:07.626Z,98110.53
2023-04-15T13:41:34.881Z,98109.25
2023-04-15T13:44:02.916Z,98116.03
2023-04-15T13:46:30.699Z,98111.53
2023-04-15T13:48:58.845Z,98110.19
2023-04-15T13:51:27.076Z,98113.91
2023-04-15T13:53:54.582Z,98116.50
2023-04-15T13:56:21.860Z,98123.69
2023-04-15T13:58:49.324Z,98121.75
2023-04-15T14:01:16.841Z,98116.56
2023-04-15T14:03:44.793Z,98115.47
2023-04-15T14:06:12.794Z,98107.88
2023-04-15T14:08:40.490Z,98096.97
2023-04-15T14:11:08.252Z,98100.16
2023-04-15T14:13:36.482Z,98109.22
2023-04-15T14:16:04.199Z,98119.41
2023-04-15T14:18:31.358Z,98111.72
2023-04-15T14:20:58.523Z,98125.25
2023-04-15T14:23:26.097Z,98125.56
2023-04-15T14:25:54.055Z,98126.63
2023-04-15T14:28:21.350Z,98128.22
2023-04-15T14:30:48.662Z,98132.09
2023-04-15T14:33:16.267Z,98144.31
2023-04-15T14:35:43.733Z,98151.22
2023-04-15T14:38:11.814Z,98151.13
2023-04-15T14:40:41.270Z,98160.41
2023-04-15T14:43:09.391Z,98162.00
2023-04-15T14:45:41.833Z,98158.66
2023-04-15T14:48:12.545Z,98170.81
2023-04-15T14:50:41.877Z,98177.16
2023-04-15T14:53:10.518Z,98174.09
2023-04-15T14:55:37.830Z,98179.56
2023-04-15T14:58:06.509Z,98179.13
2023-04-15T15:00:34.199Z,98181.31
2023-04-15T15:03:02.306Z,98190.53
2023-04-15T15:05:30.626Z,98188.31
2023-04-15T15:07:58.075Z,98196.75
2023-04-15T15:10:33.044Z,98198.94
2023-04-15T15:13:13.125Z,98203.28
2023-04-15T15:15:41.123Z,98201.84
2023-04-15T15:18:08.786Z,98211.66
2023-04-15T15:20:36.403Z,98213.72
2023-04-15T15:23:04.176Z,98225.03
2023-04-15T15:25:32.794Z,98226.50
2023-04-15T15:28:00.419Z,98229.28
2023-04-15T15:30:27.780Z,98234.41
2023-04-15T15:32:55.249Z,98230.75
2023-04-15T15:35:23.692Z,98241.59
2023-04-15T15:37:51.442Z,98238.56
2023-04-15T15:40:19.296Z,98234.03
2023-04-15T15:42:50.103Z,98240.63
2023-04-15T15:45:18.069Z,98238.53
2023-04-15T15:47:45.782Z,98245.03
2023-04-15T15:50:14.752Z,98249.31
2023-04-15T15:52:42.647Z,98250.72
2023-04-15T15:55:10.097Z,98256.69
2023-04-15T15:57:37.312Z,98265.56
2023-04-15T16:03:04.478Z,98273.28
2023-04-15T16:05:25.879Z,98277.16
2023-04-15T16:07:53.781Z,98276.91
2023-04-15T16:10:21.572Z,98286.91
2023-04-15T16:12:50.012Z,98286.91
2023-04-15T16:15:17.373Z,98300.34
2023-04-15T16:17:44.631Z,98295.66
2023-04-15T16:20:11.969Z,98308.81
2023-04-15T16:22:39.786Z,98307.69
2023-04-15T16:25:08.046Z,98318.81
2023-04-15T16:27:54.171Z,98331.06
2023-04-15T16:30:24.096Z,98324.09
2023-04-15T16:32:51.975Z,98327.56
2023-04-15T16:35:19.961Z,98330.00
2023-04-15T16:37:47.576Z,98336.56
2023-04-15T16:40:15.678Z,98340.47
2023-04-15T16:42:46.716Z,98341.63
2023-04-15T16:45:13.922Z,98344.09
2023-04-15T16:47:41.296Z,98347.13
2023-04-15T16:50:10.781Z,98349.16
2023-04-15T16:52:38.366Z,98354.91
2023-04-15T16:55:06.382Z,98359.31
2023-04-15T16:57:53.090Z,98360.63
2023-04-15T17:00:21.189Z,98362.16
2023-04-15T17:02:49.108Z,98364.22
2023-04-15T17:05:19.656Z,98374.56
2023-04-15T17:07:47.469Z,98372.03
2023-04-15T17:10:15.110Z,98379.72
2023-04-15T17:12:42.536Z,98385.38
2023-04-15T17:15:10.277Z,98384.41
2023-04-15T17:17:37.719Z,98390.91
2023-04-15T17:20:06.020Z,98387.66
2023-04-15T17:22:34.400Z,98396.78
2023-04-15T17:25:03.250Z,98397.81
2023-04-15T17:27:34.456Z,98407.41
2023-04-15T17:30:10.664Z,98411.16
2023-04-15T17:32:57.942Z,98417.63
2023-04-15T17:35:45.503Z,98423.59
2023-04-15T17:38:33.478Z,98426.16
2023-04-15T17:41:20.549Z,98429.34
2023-04-15T17:44:07.830Z,98429.59
2023-04-15T17:46:55.428Z,98434.69
2023-04-15T17:49:44.250Z,98442.69
2023-04-15T17:52:31.655Z,98442.41
2023-04-15T17:55:19.056Z,98444.56
2023-04-15T17:58:06.621Z,98446.53
2023-04-15T18:00:53.749Z,98447.75
2023-04-15T18:03:41.697Z,98452.22
2023-04-15T18:06:29.551Z,98455.22
2023-04-15T18:09:17.346Z,98467.41
2023-04-15T18:12:07.462Z,98460.00
2023-04-15T18:14:54.657Z,98474.22
2023-04-15T18:17:41.977Z,98472.91
2023-04-15T18:20:15.642Z,98479.44
2023-04-15T18:22:46.268Z,98482.22
2023-04-15T18:25:14.144Z,98486.09
2023-04-15T18:27:41.532Z,98488.13
2023-04-15T18:30:11.472Z,98483.84
2023-04-15T18:32:39.578Z,98493.25
2023-04-15T18:35:08.166Z,98489.00
2023-04-15T18:37:35.903Z,98495.38
2023-04-15T18:40:03.493Z,98498.22
2023-04-15T18:42:30.791Z,98502.22
2023-04-15T18:44:58.412Z,98503.09
2023-04-15T18:47:27.917Z,98510.75
2023-04-15T18:49:55.864Z,98515.91
2023-04-15T18:52:23.369Z,98518.00
2023-04-15T18:54:50.716Z,98521.03
2023-04-15T18:57:24.561Z,98517.81
2023-04-15T18:59:59.193Z,98520.88
2023-04-15T19:02:27.109Z,98528.53
2023-04-15T19:04:54.671Z,98534.44
2023-04-15T19:07:23.017Z,98540.13
2023-04-15T19:09:50.593Z,98542.78
2023-04-15T19:12:17.852Z,98545.16
2023-04-15T19:14:44.996Z,98543.31
2023-04-15T19:17:12.189Z,98545.94
2023-04-15T19:19:39.426Z,98550.22
2023-04-15T19:22:09.642Z,98564.84
2023-04-15T19:24:37.409Z,98558.47
2023-04-15T19:27:04.795Z,98565.13
2023-04-15T19:29:32.004Z,98560.66
2023-04-15T19:31:59.128Z,98562.75
2023-04-15T19:34:27.064Z,98561.81
2023-04-15T19:36:54.483Z,98566.69
2023-04-15T19:39:21.743Z,98570.06
2023-04-15T19:41:48.993Z,98571.75
2023-04-15T19:44:16.329Z,98569.50
2023-04-15T19:46:44.894Z,98574.13
2023-04-15T19:49:12.725Z,98575.88
2023-04-15T19:51:41.609Z,98582.59
2023-04-15T19:54:09.135Z,98577.31
2023-04-15T19:56:36.487Z,98572.91
2023-04-15T19:59:04.087Z,98575.78
2023-04-15T20:01:32.204Z,98571.41
2023-04-15T20:03:59.907Z,98575.59
2023-04-15T20:06:28.488Z,98567.28
2023-04-15T20:08:56.271Z,98573.41
2023-04-15T20:12:09.659Z,98570.22
2023-04-15T20:14:17.553Z,98575.63
2023-04-15T20:16:45.041Z,98567.53
2023-04-15T20:19:13.291Z,98570.25
2023-04-15T20:21:40.806Z,98583.19
2023-04-15T20:24:09.944Z,98570.84
2023-04-15T20:26:37.253Z,98579.38
2023-04-15T20:29:04.842Z,98575.53
2023-04-15T20:31:32.387Z,98584.03
2023-04-15T20:33:59.549Z,98571.25
2023-04-15T20:36:26.801Z,98574.28
2023-04-15T20:38:53.978Z,98572.84
2023-04-15T20:41:22.062Z,98578.66
2023-04-15T20:43:49.618Z,98569.75
2023-04-15T20:46:21.493Z,98578.81
2023-04-15T20:48:49.635Z,98579.88
2023-04-15T20:51:18.035Z,98583.69
2023-04-15T20:53:45.483Z,98586.22
2023-04-15T20:56:12.639Z,98587.38
2023-04-15T20:58:39.939Z,98595.22
2023-04-15T21:01:07.264Z,98587.72
2023-04-15T21:03:34.776Z,98596.56
2023-04-15T21:06:02.645Z,98593.78
2023-04-15T21:08:31.731Z,98598.75
2023-04-15T21:10:59.572Z,98599.66
2023-04-15T21:13:26.816Z,98601.88
2023-04-15T21:15:54.362Z,98600.34
2023-04-15T21:18:22.662Z,98606.47
2023-04-15T21:21:16.843Z,98612.03
2023-04-15T21:23:44.701Z,98610.25
2023-04-15T21:26:12.502Z,98612.47
2023-04-15T21:28:39.901Z,98608.69
2023-04-15T21:31:07.262Z,98616.50
2023-04-15T21:33:34.463Z,98621.03
2023-04-15T21:36:02.044Z,98611.78
2023-04-15T21:38:29.705Z,98623.75
2023-04-15T21:40:57.641Z,98624.22
2023-04-15T21:43:25.843Z,98625.72
2023-04-15T21:46:24.254Z,98628.50
2023-04-15T21:48:56.122Z,98631.53
2023-04-15T21:51:23.477Z,98644.09
2023-04-15T21:53:52.535Z,98636.53
2023-04-15T21:56:21.616Z,98643.56
2023-04-15T21:58:49.092Z,98635.31
2023-04-15T22:01:16.844Z,98646.03
2023-04-15T22:03:44.762Z,98642.56
2023-04-15T22:06:13.795Z,98650.16
2023-04-15T22:08:54.857Z,98656.28
2023-04-15T22:11:28.437Z,98652.22
2023-04-15T22:13:58.416Z,98657.22
2023-04-15T22:16:26.893Z,98658.56
2023-04-15T22:18:55.628Z,98650.31
2023-04-15T22:21:23.677Z,98664.78
2023-04-15T22:24:38.182Z,98672.63
2023-04-15T22:26:45.538Z,98664.78
2023-04-15T22:29:12.817Z,98665.47
2023-04-15T22:31:40.022Z,98671.84
2023-04-15T22:34:12.020Z,98669.66
2023-04-15T22:36:39.354Z,98673.72
2023-04-15T22:39:06.691Z,98682.38
2023-04-15T22:41:34.211Z,98676.47
2023-04-15T22:44:01.622Z,98688.75
2023-04-15T22:46:29.323Z,98688.31
2023-04-15T22:48:57.269Z,98689.84
2023-04-15T22:51:29.301Z,98692.53
2023-04-15T22:53:56.599Z,98692.13
2023-04-15T22:56:24.304Z,98688.66
2023-04-15T22:58:52.000Z,98690.19
2023-04-15T23:01:25.699Z,98692.88
2023-04-15T23:03:57.768Z,98700.47
2023-04-15T23:06:31.885Z,98696.34
2023-04-15T23:09:00.248Z,98695.22
2023-04-15T23:11:27.702Z,98696.53
2023-04-15T23:13:54.816Z,98697.19
2023-04-15T23:16:23.081Z,98695.81
2023-04-15T23:18:50.395Z,98696.00
2023-04-15T23:21:17.610Z,98698.97
2023-04-15T23:23:45.366Z,98699.44
2023-04-15T23:26:13.164Z,98702.47
2023-04-15T23:28:40.468Z,98705.69
2023-04-15T23:31:07.671Z,98712.22
2023-04-15T23:33:34.856Z,98709.47
2023-04-15T23:36:02.508Z,98713.94
2023-04-15T23:38:30.020Z,98712.75
2023-04-15T23:40:57.179Z,98720.66
2023-04-15T23:43:24.464Z,98720.56
2023-04-15T23:45:57.106Z,98714.09
2023-04-15T23:48:24.454Z,98715.34
2023-04-15T23:50:52.799Z,98723.84
2023-04-15T23:53:20.149Z,98722.59
2023-04-15T23:55:48.981Z,98730.50
2023-04-15T23:58:16.168Z,98727.03
